Time;durP1;ratioP1;P1;durP2;ratioP2;P2;SDS_P1;SDS_P2;PMS_P1;PMS_P2;Temp;Humidity;BMP_temperature;BMP_pressure;BME280_temperature;BME280_humidity;BME280_pressure;Samples;Min_cycle;Max_cycle;Signal;HPM_P1;HPM_P2
2024/02/06 00:01:59;;;;;;;18.43;11.37;;;3.80;99.90;;;3.29;100.00;98190.38;5066062;28;20445;-74
2024/02/06 00:04:26;;;;;;;15.00;11.60;;;3.90;99.90;;;3.48;100.00;98185.72;5059200;28;20448;-76
2024/02/06 00:06:54;;;;;;;16.73;10.23;;;4.00;99.90;;;3.47;100.00;98181.38;5066316;28;20462;-75
2024/02/06 00:09:22;;;;;;;16.30;11.43;;;4.00;99.90;;;3.54;100.00;98190.41;5037760;28;20464;-76
2024/02/06 00:11:52;;;;;;;12.63;11.33;;;4.10;99.90;;;3.71;100.00;98179.72;5042020;28;20438;-74
2024/02/06 00:14:20;;;;;;;15.00;11.60;;;4.40;99.90;;;3.85;100.00;98184.38;5064641;28;21335;-74
2024/02/06 00:16:48;;;;;;;15.90;12.97;;;4.60;99.90;;;3.87;100.00;98184.22;5060166;28;20571;-74
2024/02/06 00:19:15;;;;;;;16.00;12.90;;;4.60;98.70;;;3.77;100.00;98179.06;5065830;28;20452;-74
2024/02/06 00:21:42;;;;;;;16.97;12.03;;;4.70;96.90;;;3.66;99.22;98151.66;5060546;28;20801;-74
2024/02/06 00:24:10;;;;;;;15.30;12.97;;;4.70;96.20;;;3.79;99.34;98171.72;5041720;28;20442;-77
2024/02/06 00:26:37;;;;;;;15.60;13.00;;;4.70;95.70;;;3.83;98.80;98178.38;5063493;28;20448;-73
2024/02/06 00:29:05;;;;;;;16.57;12.77;;;4.70;95.40;;;3.83;98.98;98167.69;5052389;28;20475;-74
2024/02/06 00:31:33;;;;;;;17.90;11.90;;;4.70;95.20;;;3.80;98.82;98173.38;5042739;28;20449;-74
2024/02/06 00:34:00;;;;;;;16.90;12.70;;;4.70;95.00;;;3.79;98.54;98182.41;5059090;28;21010;-74
2024/02/06 00:36:27;;;;;;;14.50;11.83;;;4.70;94.90;;;3.82;98.86;98174.03;5047375;28;20516;-74
2024/02/06 00:38:54;;;;;;;16.23;12.63;;;4.70;95.00;;;3.98;97.76;98186.56;5042364;28;20509;-71
2024/02/06 00:41:22;;;;;;;13.50;11.57;;;4.80;94.70;;;4.03;97.74;98183.38;5044222;28;21078;-69
2024/02/06 00:43:51;;;;;;;19.97;11.77;;;4.80;94.40;;;3.91;97.12;98158.81;5043398;28;20471;-76
2024/02/06 00:46:18;;;;;;;17.70;11.20;;;4.90;94.00;;;4.12;96.46;98193.03;5046385;28;20949;-74
2024/02/06 00:48:47;;;;;;;18.53;11.10;;;4.90;93.50;;;4.26;95.94;98180.84;5059499;28;20462;-73
2024/02/06 00:51:14;;;;;;;16.93;11.27;;;5.00;93.50;;;4.29;95.11;98188.50;5062773;28;20466;-75
2024/02/06 00:53:42;;;;;;;16.07;10.20;;;5.10;92.90;;;4.28;94.17;98191.34;5046268;28;20556;-74
2024/02/06 00:56:09;;;;;;;13.47;10.93;;;5.10;92.10;;;4.31;93.71;98191.00;5063358;28;20503;-73
2024/02/06 00:58:37;;;;;;;11.83;10.23;;;5.20;91.70;;;4.33;94.12;98187.16;5047803;28;20505;-74
2024/02/06 01:01:05;;;;;;;18.00;10.13;;;5.20;91.60;;;4.31;93.43;98191.00;5062672;28;20453;-73
2024/02/06 01:03:32;;;;;;;12.30;10.57;;;5.20;91.20;;;4.39;92.52;98185.63;5061648;28;20535;-73
2024/02/06 01:06:00;;;;;;;10.90;9.27;;;5.20;91.10;;;4.55;92.13;98182.09;5047499;28;20444;-74
2024/02/06 01:08:27;;;;;;;10.20;8.43;;;5.30;91.20;;;4.40;91.80;98181.97;5042420;28;20464;-75
2024/02/06 01:10:55;;;;;;;12.50;9.00;;;5.30;90.70;;;4.60;91.64;98190.44;5060876;28;20452;-74
2024/02/06 01:13:22;;;;;;;14.13;9.20;;;5.40;90.50;;;4.52;91.40;98175.25;5065874;28;20452;-75
2024/02/06 01:15:49;;;;;;;13.03;9.50;;;5.40;90.30;;;4.64;91.37;98180.22;5060554;28;20760;-76
2024/02/06 01:18:16;;;;;;;8.50;7.67;;;5.40;90.20;;;4.62;90.28;98187.56;5061305;28;20457;-75
2024/02/06 01:20:43;;;;;;;13.83;8.87;;;5.50;90.10;;;4.59;90.44;98188.75;5063713;28;20452;-73
2024/02/06 01:23:12;;;;;;;11.90;8.30;;;5.40;89.90;;;4.64;90.28;98182.91;5063265;28;20547;-73
2024/02/06 01:25:39;;;;;;;13.77;7.70;;;5.50;89.70;;;4.65;90.29;98190.72;5067291;28;21115;-75
2024/02/06 01:28:07;;;;;;;11.90;7.70;;;5.50;89.50;;;4.77;89.61;98183.16;5042091;28;20782;-74
2024/02/06 01:30:34;;;;;;;11.60;7.97;;;5.60;89.60;;;4.59;89.64;98172.69;5064485;28;20453;-73
2024/02/06 01:33:01;;;;;;;8.40;6.93;;;5.50;88.50;;;4.68;89.34;98162.81;5045922;28;21096;-74
2024/02/06 01:35:29;;;;;;;12.83;7.43;;;5.60;88.60;;;4.68;88.53;98158.25;5065872;28;20468;-74
2024/02/06 01:37:56;;;;;;;8.50;6.00;;;5.60;88.20;;;4.78;88.38;98176.81;5061600;28;20570;-71
2024/02/06 01:40:25;;;;;;;11.10;7.43;;;5.60;88.00;;;4.74;88.93;98188.03;5065520;28;20456;-74
2024/02/06 01:42:52;;;;;;;13.70;7.57;;;5.60;88.00;;;4.81;88.72;98171.09;5045553;28;20503;-74
2024/02/06 01:45:20;;;;;;;10.90;7.83;;;5.60;88.10;;;4.79;87.90;98173.13;5044436;28;20523;-74
2024/02/06 01:47:47;;;;;;;9.20;6.30;;;5.60;87.80;;;4.89;87.33;98167.56;5065509;28;20452;-74
2024/02/06 01:50:14;;;;;;;15.20;6.93;;;5.60;87.60;;;4.94;87.62;98167.03;5047362;28;20444;-74
2024/02/06 01:52:42;;;;;;;10.43;7.27;;;5.70;87.50;;;4.94;87.44;98161.69;5063272;28;20458;-75
2024/02/06 01:55:09;;;;;;;12.50;7.33;;;5.70;87.30;;;4.79;88.02;98166.91;5060070;28;20488;-73
2024/02/06 01:57:39;;;;;;;9.30;6.33;;;5.60;87.20;;;4.74;88.27;98166.63;5063460;28;20448;-72
2024/02/06 02:00:09;;;;;;;8.67;6.63;;;5.60;87.10;;;4.68;87.69;98146.75;5037188;28;20483;-75
2024/02/06 02:02:38;;;;;;;10.63;6.30;;;5.60;87.50;;;4.74;87.64;98158.59;5035244;28;20682;-74
2024/02/06 02:05:07;;;;;;;9.57;6.70;;;5.50;87.40;;;4.73;88.44;98163.09;5045245;28;20456;-73
2024/02/06 02:07:35;;;;;;;16.43;6.93;;;5.50;87.50;;;4.74;87.87;98162.09;5061310;28;20455;-73
2024/02/06 02:10:03;;;;;;;8.83;6.83;;;5.50;87.50;;;4.79;87.40;98151.72;5060424;28;20444;-74
2024/02/06 02:12:35;;;;;;;10.40;6.20;;;5.60;87.40;;;4.92;86.96;98148.44;5048163;28;20506;-74
2024/02/06 02:15:05;;;;;;;9.83;5.87;;;5.60;87.50;;;4.98;86.90;98144.25;5064486;28;20478;-73
2024/02/06 02:17:32;;;;;;;9.73;6.30;;;5.60;87.10;;;4.79;86.56;98142.84;5063902;28;20957;-71
2024/02/06 02:19:59;;;;;;;11.57;5.93;;;5.60;86.70;;;4.87;86.47;98147.31;5050318;28;20457;-72
2024/02/06 02:22:28;;;;;;;6.13;5.50;;;5.60;86.50;;;4.79;86.94;98146.34;5043048;28;20820;-73
2024/02/06 02:24:55;;;;;;;9.53;5.73;;;5.50;86.90;;;4.78;86.71;98158.06;5048875;28;20452;-74
2024/02/06 02:27:22;;;;;;;9.20;5.50;;;5.50;86.70;;;4.96;85.84;98146.25;5050829;28;20460;-74
2024/02/06 02:29:54;;;;;;;13.40;6.77;;;5.60;86.70;;;4.91;85.68;98149.47;5049214;28;20448;-72
2024/02/06 02:32:22;;;;;;;8.83;5.87;;;5.60;86.10;;;4.90;85.41;98144.28;5049462;28;20463;-70
2024/02/06 02:34:50;;;;;;;8.67;5.53;;;5.60;86.10;;;4.86;85.45;98143.81;5067462;28;20488;-73
2024/02/06 02:37:17;;;;;;;14.00;6.77;;;5.60;85.80;;;4.82;84.73;98139.81;5063888;28;20777;-73
2024/02/06 02:39:46;;;;;;;9.13;5.47;;;5.60;85.60;;;4.88;84.49;98135.59;5049558;28;20464;-72
2024/02/06 02:42:13;;;;;;;12.73;5.40;;;5.60;85.60;;;4.97;84.56;98145.25;5051482;28;20539;-74
2024/02/06 02:44:40;;;;;;;10.90;6.40;;;5.60;85.40;;;4.84;84.48;98145.81;5049267;28;20821;-74
2024/02/06 02:47:09;;;;;;;12.10;5.77;;;5.60;84.90;;;4.91;84.18;98145.94;5066600;28;20453;-74
2024/02/06 02:49:36;;;;;;;11.97;6.30;;;5.60;84.90;;;4.87;83.60;98121.38;5042823;28;20448;-74
2024/02/06 02:52:03;;;;;;;11.10;5.77;;;5.70;84.60;;;4.98;83.28;98128.19;5067718;28;20452;-74
2024/02/06 02:54:31;;;;;;;10.23;5.83;;;5.70;84.50;;;4.89;83.56;98129.22;5060536;28;20460;-75
2024/02/06 02:56:59;;;;;;;8.67;6.30;;;5.60;84.40;;;4.94;83.38;98122.31;5050569;28;20448;-74
2024/02/06 02:59:27;;;;;;;14.03;6.53;;;5.70;84.50;;;4.95;84.00;98115.16;5066969;28;20457;-73
2024/02/06 03:01:54;;;;;;;12.47;5.80;;;5.70;84.60;;;4.99;84.28;98119.13;5065061;28;20449;-76
2024/02/06 03:04:21;;;;;;;9.63;6.17;;;5.70;84.70;;;5.08;83.19;98123.44;5066368;28;20477;-75
2024/02/06 03:06:48;;;;;;;9.90;6.37;;;5.70;84.50;;;5.03;83.79;98114.25;5066967;28;20460;-75
2024/02/06 03:09:16;;;;;;;12.33;5.77;;;5.70;84.60;;;4.94;83.40;98129.53;5060165;28;20865;-74
2024/02/06 03:11:44;;;;;;;8.20;5.10;;;5.60;84.60;;;5.00;83.61;98125.31;5066798;28;20531;-74
2024/02/06 03:14:13;;;;;;;9.43;6.00;;;5.70;84.60;;;5.06;83.62;98120.06;5064296;28;20566;-72
2024/02/06 03:16:40;;;;;;;10.70;7.17;;;5.70;84.60;;;5.06;83.26;98125.44;5065957;28;20475;-74
2024/02/06 03:19:07;;;;;;;9.03;6.90;;;5.70;84.60;;;5.10;82.79;98118.72;5059481;28;20514;-74
2024/02/06 03:21:34;;;;;;;8.73;6.00;;;5.70;84.50;;;5.02;82.88;98118.78;5043499;28;20826;-73
2024/02/06 03:24:02;;;;;;;10.67;5.77;;;5.70;84.40;;;5.03;83.04;98120.44;5066053;28;20471;-73
2024/02/06 03:26:29;;;;;;;11.67;6.73;;;5.70;84.10;;;4.94;83.11;98116.16;5062856;28;20452;-73
2024/02/06 03:28:57;;;;;;;8.00;5.90;;;5.70;84.10;;;4.91;83.44;98116.50;5061733;28;20448;-70
2024/02/06 03:31:25;;;;;;;9.70;5.57;;;5.70;84.20;;;4.99;83.28;98120.97;5066144;28;20452;-74
2024/02/06 03:33:52;;;;;;;13.57;6.40;;;5.70;84.40;;;5.06;82.60;98124.63;5049163;28;20465;-73
2024/02/06 03:36:19;;;;;;;9.67;6.03;;;5.70;84.40;;;4.99;83.30;98123.63;5065434;28;20488;-73
2024/02/06 03:38:46;;;;;;;11.80;6.60;;;5.60;84.30;;;4.88;83.63;98123.03;5045589;28;20447;-72
2024/02/06 03:41:14;;;;;;;9.07;5.90;;;5.60;84.40;;;5.08;83.17;98134.16;5046822;28;20464;-72
2024/02/06 03:43:41;;;;;;;7.23;5.33;;;5.60;84.70;;;5.24;83.22;98133.19;5066388;28;20456;-71
2024/02/06 03:46:08;;;;;;;16.70;6.80;;;5.70;84.80;;;5.04;83.20;98129.31;5065351;28;20448;-74
2024/02/06 03:48:37;;;;;;;9.90;6.80;;;5.70;84.30;;;4.88;83.38;98127.56;5065386;28;20461;-73
2024/02/06 03:51:05;;;;;;;12.23;6.87;;;5.70;84.40;;;5.06;83.20;98136.13;5066972;28;20479;-74
2024/02/06 03:53:33;;;;;;;12.93;6.80;;;5.70;84.50;;;5.02;84.11;98129.47;5065468;28;20444;-73
2024/02/06 03:56:00;;;;;;;11.97;7.37;;;5.70;84.50;;;4.96;83.34;98140.91;5046270;28;20522;-73
2024/02/06 03:58:28;;;;;;;10.87;7.00;;;5.70;84.40;;;4.95;83.79;98134.72;5065872;28;20470;-74
2024/02/06 04:00:55;;;;;;;11.57;6.43;;;5.60;84.40;;;4.91;84.08;98144.13;5059357;28;20453;-74
2024/02/06 04:03:22;;;;;;;15.20;7.23;;;5.60;84.50;;;4.99;83.63;98132.53;5062841;28;20467;-75
2024/02/06 04:05:50;;;;;;;12.63;7.97;;;5.70;84.70;;;4.99;84.26;98137.88;5047804;28;20449;-73
2024/02/06 04:08:17;;;;;;;13.93;6.83;;;5.60;84.80;;;5.07;83.65;98135.13;5062454;28;20994;-75
2024/02/06 04:10:45;;;;;;;16.57;8.17;;;5.70;84.80;;;4.98;84.04;98138.88;5063888;28;20971;-73
2024/02/06 04:13:12;;;;;;;10.37;7.43;;;5.60;84.80;;;4.75;84.23;98112.91;5062117;28;20456;-73
2024/02/06 04:15:39;;;;;;;10.30;7.67;;;5.60;84.80;;;5.07;83.94;98135.13;5039923;28;20468;-74
2024/02/06 04:18:07;;;;;;;14.50;7.40;;;5.70;84.90;;;5.09;83.78;98130.47;5064181;28;20464;-75
2024/02/06 04:20:34;;;;;;;11.40;7.90;;;5.70;84.80;;;4.94;83.93;98132.22;5043509;28;20456;-72
2024/02/06 04:23:04;;;;;;;10.13;7.10;;;5.70;84.70;;;4.92;84.29;98136.91;5066850;28;20493;-74
2024/02/06 04:25:31;;;;;;;10.00;6.60;;;5.70;84.80;;;4.81;84.17;98127.41;5065437;28;20517;-73
2024/02/06 04:27:58;;;;;;;9.50;7.13;;;5.70;84.80;;;4.78;84.92;98133.97;5064603;28;20457;-71
2024/02/06 04:30:25;;;;;;;13.03;8.20;;;5.70;84.70;;;4.92;85.08;98135.06;5058981;28;20492;-73
2024/02/06 04:32:53;;;;;;;13.23;8.03;;;5.70;84.80;;;4.78;85.60;98139.34;5047286;28;20464;-74
2024/02/06 04:35:20;;;;;;;16.63;8.30;;;5.60;84.80;;;4.93;84.80;98136.72;5063264;28;20477;-73
2024/02/06 04:37:48;;;;;;;13.70;8.30;;;5.70;85.00;;;4.87;84.44;98136.59;5060596;28;20452;-74
2024/02/06 04:40:17;;;;;;;13.47;7.70;;;5.70;84.80;;;4.90;84.73;98130.88;5038465;28;20449;-74
2024/02/06 04:42:44;;;;;;;12.40;7.40;;;5.70;85.00;;;4.49;84.95;98065.88;5060631;28;20499;-73
2024/02/06 04:45:12;;;;;;;16.20;8.00;;;5.70;85.00;;;4.92;85.23;98128.84;5046458;28;20467;-72
2024/02/06 04:47:39;;;;;;;17.57;7.60;;;5.70;85.10;;;4.86;85.51;98133.09;5063925;28;21234;-72
2024/02/06 04:50:07;;;;;;;14.90;7.83;;;5.70;85.30;;;5.00;85.46;98120.78;5044197;28;20452;-73
2024/02/06 04:52:35;;;;;;;16.60;8.37;;;5.70;85.40;;;4.82;86.23;98129.94;5061263;28;20799;-73
2024/02/06 04:55:04;;;;;;;13.50;8.60;;;5.60;85.50;;;4.78;86.08;98115.25;5064231;28;20942;-72
2024/02/06 04:57:33;;;;;;;13.47;7.03;;;5.60;85.70;;;4.89;86.55;98126.53;5066135;28;20475;-71
2024/02/06 05:00:01;;;;;;;12.53;8.10;;;5.60;86.20;;;4.89;86.15;98121.19;5047668;28;20502;-73
2024/02/06 05:02:28;;;;;;;11.90;7.90;;;5.60;85.90;;;4.88;86.36;98112.34;5056998;28;20826;-72
2024/02/06 05:04:55;;;;;;;12.90;8.00;;;5.60;85.80;;;4.79;86.85;98114.22;5046497;28;20445;-72
2024/02/06 05:07:22;;;;;;;17.30;8.60;;;5.60;86.10;;;4.87;86.45;98115.19;5044651;28;20549;-73
2024/02/06 05:09:50;;;;;;;12.43;7.87;;;5.60;86.30;;;4.91;86.41;98116.50;5056092;28;20679;-74
2024/02/06 05:12:17;;;;;;;12.43;6.93;;;5.60;86.30;;;4.93;86.58;98114.50;5060536;28;20448;-74
2024/02/06 05:14:45;;;;;;;14.20;8.70;;;5.70;86.30;;;4.77;87.85;98115.41;5047995;28;20452;-73
2024/02/06 05:17:13;;;;;;;13.73;8.20;;;5.60;86.40;;;4.78;87.70;98123.28;5063636;28;20875;-74
2024/02/06 05:19:42;;;;;;;13.03;8.57;;;5.60;86.80;;;4.75;87.73;98120.91;5045221;28;20935;-75
2024/02/06 05:22:09;;;;;;;12.33;7.70;;;5.60;87.20;;;4.35;88.30;98058.59;5042668;28;20496;-73
2024/02/06 05:24:37;;;;;;;15.23;8.73;;;5.50;87.50;;;4.89;88.27;98110.47;5059814;28;20475;-71
2024/02/06 05:27:05;;;;;;;10.93;7.90;;;5.60;88.20;;;4.85;88.22;98117.22;5065019;28;20452;-73
2024/02/06 05:29:33;;;;;;;18.00;8.43;;;5.60;88.10;;;4.78;89.35;98111.72;5047628;28;20534;-73
2024/02/06 05:32:03;;;;;;;12.90;9.13;;;5.60;88.60;;;4.71;89.73;98108.91;5058607;28;20455;-73
2024/02/06 05:34:30;;;;;;;10.73;7.50;;;5.50;89.10;;;4.78;90.02;98109.88;5059580;28;20591;-71
2024/02/06 05:36:57;;;;;;;14.20;9.10;;;5.50;89.60;;;4.72;90.70;98109.75;5063769;28;20557;-74
2024/02/06 05:39:25;;;;;;;12.37;8.53;;;5.50;90.20;;;4.75;90.55;98118.25;5041827;28;20456;-76
2024/02/06 05:41:52;;;;;;;12.73;8.57;;;5.50;90.50;;;4.85;90.58;98112.66;5057781;28;20444;-70
2024/02/06 05:44:20;;;;;;;13.27;8.67;;;5.50;90.50;;;4.80;90.65;98115.91;5063930;28;20849;-75
2024/02/06 05:46:48;;;;;;;13.07;8.67;;;5.50;90.70;;;4.68;92.13;98111.94;5065812;28;20604;-73
2024/02/06 05:49:16;;;;;;;16.53;9.27;;;5.50;90.80;;;4.18;92.27;98031.91;5063113;28;20460;-73
2024/02/06 05:51:44;;;;;;;14.80;9.23;;;5.50;91.10;;;4.39;92.42;98054.56;5065336;28;20473;-74
2024/02/06 05:54:11;;;;;;;14.30;9.80;;;5.50;91.40;;;4.80;92.67;98121.25;5068239;28;20448;-72
2024/02/06 05:56:39;;;;;;;12.70;9.60;;;5.50;91.40;;;4.50;93.78;98121.06;5049712;28;20547;-71
2024/02/06 05:59:06;;;;;;;13.37;9.17;;;5.50;91.60;;;4.51;95.01;98104.00;5050399;28;20466;-72
2024/02/06 06:01:33;;;;;;;19.57;8.90;;;5.40;91.70;;;4.51;94.58;98095.97;5046924;28;20456;-73
2024/02/06 06:04:01;;;;;;;16.20;8.80;;;5.50;92.00;;;4.60;93.66;98095.91;5047965;28;20923;-71
2024/02/06 06:06:30;;;;;;;13.63;9.17;;;5.40;91.80;;;4.71;93.58;98094.72;5056506;28;20479;-71
2024/02/06 06:08:57;;;;;;;15.70;9.17;;;5.50;92.00;;;4.74;93.19;98084.47;5061461;28;20459;-69
2024/02/06 06:11:24;;;;;;;14.90;10.20;;;5.50;91.90;;;4.61;94.25;98089.56;5060064;28;20484;-73
2024/02/06 06:13:51;;;;;;;18.20;9.27;;;5.40;92.00;;;4.68;93.64;98087.84;5044381;28;20453;-77
2024/02/06 06:16:19;;;;;;;16.80;10.23;;;5.50;91.90;;;4.70;93.54;98090.34;5038060;28;20984;-71
2024/02/06 06:18:46;;;;;;;13.70;9.43;;;5.50;91.80;;;4.66;94.07;98089.88;5056253;28;20464;-72
2024/02/06 06:21:14;;;;;;;21.30;10.70;;;5.50;91.90;;;4.57;95.92;98080.22;5056411;28;20465;-70
2024/02/06 06:23:43;;;;;;;18.30;10.00;;;5.50;92.60;;;4.59;94.01;98086.22;5056613;28;20573;-71
2024/02/06 06:26:10;;;;;;;14.80;9.93;;;5.60;91.80;;;4.76;93.87;98095.81;5057587;28;20456;-72
2024/02/06 06:28:38;;;;;;;15.50;9.70;;;5.60;91.50;;;4.72;92.71;98070.41;5057881;28;20460;-71
2024/02/06 06:31:07;;;;;;;18.73;8.93;;;5.60;91.10;;;4.73;92.72;98088.16;5039925;28;20457;-72
2024/02/06 06:33:34;;;;;;;16.07;10.57;;;5.60;90.90;;;4.64;93.82;98083.88;5052752;28;20456;-70
2024/02/06 06:36:01;;;;;;;14.70;9.50;;;5.50;91.30;;;4.67;93.64;98081.66;5041470;28;20821;-69
2024/02/06 06:38:28;;;;;;;19.17;9.37;;;5.50;91.80;;;4.73;92.66;98080.13;5042780;28;20456;-71
2024/02/06 06:40:57;;;;;;;13.70;8.20;;;5.50;91.60;;;4.77;92.49;98073.41;5064035;28;20887;-71
2024/02/06 06:43:25;;;;;;;13.17;9.33;;;5.50;91.40;;;4.91;91.87;98085.19;5059252;28;20475;-73
2024/02/06 06:45:52;;;;;;;18.87;9.77;;;5.60;91.30;;;4.89;91.70;98086.38;5061623;28;20873;-72
2024/02/06 06:48:20;;;;;;;11.83;8.30;;;5.60;90.80;;;4.85;92.01;98080.53;5060813;28;20470;-71
2024/02/06 06:50:47;;;;;;;13.50;9.13;;;5.60;91.00;;;4.90;91.63;98080.00;5053033;28;21142;-71
2024/02/06 06:53:14;;;;;;;13.93;8.23;;;5.60;91.10;;;4.84;91.73;98064.69;5041536;28;20449;-71
2024/02/06 06:55:42;;;;;;;13.63;9.00;;;5.70;91.00;;;4.95;91.26;98091.03;5041488;28;20449;-73
2024/02/06 06:58:10;;;;;;;11.10;8.30;;;5.60;90.70;;;4.88;91.15;98077.53;5044638;28;20478;-73
2024/02/06 07:00:38;;;;;;;12.13;7.40;;;5.60;90.70;;;4.85;91.75;98074.38;5060287;28;20807;-70
2024/02/06 07:03:05;;;;;;;11.87;7.93;;;5.60;90.60;;;4.97;90.86;98081.81;5056458;28;20464;-74
2024/02/06 07:05:32;;;;;;;9.93;7.57;;;5.70;90.60;;;4.87;91.29;98080.38;5060839;28;20449;-73
2024/02/06 07:08:00;;;;;;;11.53;7.50;;;5.70;90.50;;;4.99;91.01;98081.63;5033746;28;20443;-70
2024/02/06 07:10:27;;;;;;;10.90;7.40;;;5.70;90.80;;;5.00;90.73;98080.63;5057918;28;20469;-72
2024/02/06 07:12:54;;;;;;;15.77;7.73;;;5.70;90.30;;;4.72;90.02;98027.59;5058769;28;20585;-71
2024/02/06 07:15:23;;;;;;;12.03;8.30;;;5.70;90.20;;;5.20;90.11;98082.81;5040161;28;20456;-71
2024/02/06 07:17:50;;;;;;;10.73;6.60;;;5.90;90.40;;;5.00;90.04;98072.59;5057574;28;20492;-71
2024/02/06 07:20:19;;;;;;;11.87;6.87;;;5.90;89.70;;;4.90;90.54;98071.97;5056398;28;20456;-75
2024/02/06 07:22:46;;;;;;;11.10;6.63;;;5.70;89.80;;;4.82;90.91;98054.13;5061802;28;20465;-76
2024/02/06 07:25:14;;;;;;;9.23;6.60;;;5.70;90.00;;;5.00;90.02;98075.28;5054802;28;20819;-74
2024/02/06 07:27:42;;;;;;;7.60;6.40;;;5.80;89.80;;;5.12;89.17;98074.88;5056569;28;20453;-76
2024/02/06 07:30:11;;;;;;;10.87;7.20;;;5.80;89.60;;;5.16;88.75;98070.81;5042176;28;20452;-73
2024/02/06 07:32:39;;;;;;;10.33;7.30;;;5.90;89.30;;;5.15;89.23;98082.53;5053965;28;20450;-76
2024/02/06 07:35:08;;;;;;;8.40;5.80;;;5.90;89.30;;;4.85;88.59;98026.19;5042675;28;20479;-72
2024/02/06 07:37:37;;;;;;;11.70;7.60;;;5.90;88.80;;;5.21;88.38;98079.13;5041844;28;20468;-72
2024/02/06 07:40:06;;;;;;;11.63;7.33;;;5.90;88.70;;;5.39;87.39;98076.13;5039362;28;20472;-72
2024/02/06 07:42:33;;;;;;;7.67;5.50;;;6.00;88.70;;;5.15;87.63;98069.13;5054666;28;20465;-71
2024/02/06 07:45:03;;;;;;;9.20;5.63;;;6.00;88.10;;;5.30;87.58;98086.09;5055869;28;20466;-71
2024/02/06 07:47:31;;;;;;;9.80;6.00;;;6.00;87.80;;;5.36;87.36;98082.69;5055701;28;20491;-70
2024/02/06 07:50:00;;;;;;;8.90;6.53;;;6.10;87.50;;;5.39;87.27;98087.72;5052590;28;20465;-70
2024/02/06 07:52:27;;;;;;;10.27;6.50;;;6.10;87.60;;;5.29;86.90;98084.44;5054335;28;20998;-72
2024/02/06 07:54:54;;;;;;;7.90;5.67;;;6.10;87.30;;;5.41;86.46;98082.16;5055412;28;20463;-71
2024/02/06 07:57:21;;;;;;;11.43;6.00;;;6.10;87.30;;;5.46;86.13;98092.34;5050341;28;20508;-73
2024/02/06 07:59:49;;;;;;;10.40;5.90;;;6.20;87.10;;;5.43;86.48;98092.69;5056665;28;20536;-69
2024/02/06 08:02:16;;;;;;;11.50;6.53;;;6.20;86.80;;;5.41;86.27;98094.72;5051159;28;20463;-71
2024/02/06 08:04:45;;;;;;;10.10;5.67;;;6.10;86.50;;;5.37;85.31;98089.72;5040022;28;21342;-69
2024/02/06 08:07:14;;;;;;;6.60;5.10;;;6.20;86.50;;;5.34;85.45;98057.09;5055976;28;20964;-72
2024/02/06 08:09:41;;;;;;;8.87;6.20;;;6.20;86.20;;;5.59;84.90;98097.06;5060365;28;20464;-72
2024/02/06 08:12:09;;;;;;;9.83;6.00;;;6.30;86.20;;;5.57;84.40;98083.88;5043276;28;20464;-73
2024/02/06 08:14:36;;;;;;;8.10;5.03;;;6.30;85.80;;;5.37;85.82;98095.06;5036713;28;21348;-70
2024/02/06 08:17:04;;;;;;;6.37;4.33;;;6.20;85.90;;;5.60;84.10;98088.84;5038453;28;20469;-71
2024/02/06 08:19:32;;;;;;;7.47;4.20;;;6.30;85.60;;;5.76;83.65;98092.41;5036064;28;20645;-72
2024/02/06 08:21:59;;;;;;;8.97;4.70;;;6.40;85.40;;;5.75;83.64;98090.72;5042854;28;20801;-71
2024/02/06 08:24:28;;;;;;;7.50;4.70;;;6.40;85.20;;;5.42;84.57;98075.78;5055761;28;21042;-73
2024/02/06 08:26:56;;;;;;;6.40;4.40;;;6.30;85.00;;;5.57;84.54;98078.50;5039192;28;21021;-71
2024/02/06 08:29:24;;;;;;;5.27;4.77;;;6.30;85.30;;;5.83;83.46;98079.91;5035450;28;20547;-74
2024/02/06 08:31:52;;;;;;;8.33;4.53;;;6.40;85.10;;;5.92;82.80;98076.13;5056803;28;21308;-69
2024/02/06 08:34:19;;;;;;;7.93;4.73;;;6.50;84.80;;;5.94;82.76;98074.09;5053307;28;20617;-72
2024/02/06 08:36:46;;;;;;;5.90;4.30;;;6.60;84.80;;;5.74;82.87;98073.78;5061025;28;20464;-70
2024/02/06 08:39:15;;;;;;;5.93;4.80;;;6.50;84.20;;;5.74;82.74;98060.38;5054906;28;20460;-71
2024/02/06 08:41:44;;;;;;;12.70;4.90;;;6.50;84.30;;;6.17;81.24;98067.84;5055044;28;20458;-72
2024/02/06 08:44:12;;;;;;;7.57;4.30;;;6.70;84.30;;;6.12;81.36;98061.38;5057216;28;20466;-73
2024/02/06 08:46:40;;;;;;;5.60;3.60;;;6.80;83.80;;;6.00;81.32;98053.75;5059444;28;20520;-74
2024/02/06 08:49:08;;;;;;;8.40;4.70;;;6.80;83.70;;;5.84;82.84;98068.19;5053847;28;20906;-73
2024/02/06 08:51:35;;;;;;;6.83;4.73;;;6.70;83.90;;;5.93;81.87;98072.44;5057899;28;20489;-71
2024/02/06 08:54:02;;;;;;;5.73;4.17;;;6.70;83.80;;;6.00;81.60;98077.91;5056473;28;20949;-71
2024/02/06 08:56:31;;;;;;;5.07;3.60;;;6.70;83.70;;;6.04;81.03;98062.31;5064701;28;20463;-71
2024/02/06 08:59:01;;;;;;;6.00;4.20;;;6.70;83.30;;;6.07;81.22;98069.97;5060770;28;20461;-73
2024/02/06 09:01:29;;;;;;;8.20;3.67;;;6.70;83.50;;;6.08;80.96;98058.22;5044462;28;20802;-72
2024/02/06 09:03:57;;;;;;;5.50;3.63;;;6.90;83.40;;;6.10;80.04;98083.00;5044301;28;20445;-71
2024/02/06 09:06:25;;;;;;;7.20;3.90;;;6.90;83.20;;;6.02;80.65;98067.03;5053205;28;20467;-72
2024/02/06 09:08:58;;;;;;;5.93;3.73;;;6.90;82.90;;;6.18;80.30;98052.56;5056248;28;20539;-71
2024/02/06 09:11:25;;;;;;;7.63;4.70;;;6.90;83.00;;;6.16;80.42;98076.94;5056200;28;20957;-72
2024/02/06 09:13:53;;;;;;;5.20;3.90;;;6.90;83.00;;;6.28;80.16;98069.22;5053306;28;20525;-73
2024/02/06 09:16:22;;;;;;;7.90;3.90;;;7.00;82.90;;;6.37;79.01;98056.53;5057107;28;20460;-72
2024/02/06 09:18:50;;;;;;;9.13;3.63;;;7.00;82.80;;;6.71;78.51;98057.75;5037709;28;20476;-74
2024/02/06 09:21:17;;;;;;;11.57;4.40;;;7.20;82.60;;;6.65;78.60;98048.59;5040807;28;20602;-74
2024/02/06 09:23:45;;;;;;;6.03;4.00;;;7.30;82.50;;;7.03;76.46;98062.84;5057176;28;20476;-72
2024/02/06 09:26:12;;;;;;;3.93;3.53;;;7.50;82.10;;;6.91;76.93;98063.34;5063000;28;20462;-72
2024/02/06 09:28:40;;;;;;;7.23;4.60;;;7.50;81.70;;;6.86;76.78;98054.19;5049226;28;20449;-77
2024/02/06 09:31:07;;;;;;;5.97;3.30;;;7.50;81.60;;;6.82;76.57;98048.38;5046805;28;20516;-72
2024/02/06 09:33:36;;;;;;;3.80;2.70;;;7.50;81.40;;;6.62;76.91;98042.81;5045316;28;20453;-71
2024/02/06 09:36:05;;;;;;;4.63;3.10;;;7.50;81.30;;;6.65;77.48;98043.22;5060978;28;20485;-71
2024/02/06 09:38:32;;;;;;;5.27;3.30;;;7.40;81.50;;;6.79;76.99;98049.59;5058474;28;20484;-72
2024/02/06 09:41:00;;;;;;;6.20;3.37;;;7.50;81.30;;;7.09;76.54;98048.63;5060285;28;20536;-71
2024/02/06 09:43:29;;;;;;;5.23;3.70;;;7.60;81.50;;;7.21;75.67;98047.09;5059869;28;20457;-72
2024/02/06 09:45:56;;;;;;;4.37;3.33;;;7.80;81.10;;;7.03;76.50;98050.22;5063189;28;20453;-70
2024/02/06 09:48:25;;;;;;;4.23;3.17;;;7.70;80.80;;;7.17;75.45;98048.53;5062403;28;20449;-72
2024/02/06 09:50:58;;;;;;;3.67;2.33;;;7.80;80.80;;;7.16;75.49;98027.19;5067002;28;20480;-71
2024/02/06 09:53:29;;;;;;;3.63;2.70;;;7.90;80.60;;;6.97;76.37;98029.53;5040695;28;20461;-73
2024/02/06 09:55:57;;;;;;;4.27;2.87;;;7.80;80.50;;;7.38;75.24;98030.69;5049253;28;20520;-69
2024/02/06 09:58:25;;;;;;;3.20;2.60;;;7.90;80.70;;;7.44;74.64;98032.63;5060734;28;20484;-71
2024/02/06 10:00:54;;;;;;;4.63;2.67;;;8.00;80.50;;;7.64;73.67;98040.00;5064283;28;21307;-72
2024/02/06 10:03:26;;;;;;;8.40;3.10;;;8.20;80.10;;;7.52;73.53;98031.66;5041338;28;20488;-72
2024/02/06 10:05:59;;;;;;;2.90;2.43;;;8.30;79.80;;;7.80;72.60;98039.69;5040168;28;20538;-72
2024/02/06 10:08:27;;;;;;;6.17;3.40;;;8.40;79.70;;;7.86;72.82;98046.16;5061516;28;20463;-70
2024/02/06 10:10:54;;;;;;;5.70;2.93;;;8.40;79.40;;;7.74;73.15;98036.97;5054449;28;20546;-71
2024/02/06 10:13:23;;;;;;;6.00;2.67;;;8.50;79.40;;;7.83;73.43;98048.41;5060422;28;20556;-73
2024/02/06 10:15:51;;;;;;;4.27;2.63;;;8.40;79.40;;;7.57;73.38;98045.34;5059886;28;20457;-70
2024/02/06 10:18:19;;;;;;;3.43;1.80;;;8.40;79.30;;;7.59;73.21;98056.72;5060312;28;20919;-74
2024/02/06 10:20:48;;;;;;;5.37;3.40;;;8.40;79.50;;;7.66;72.93;98048.69;5058484;28;21725;-74
2024/02/06 10:23:18;;;;;;;3.90;2.40;;;8.30;79.40;;;7.51;74.17;98041.56;5043021;28;20556;-73
2024/02/06 10:25:46;;;;;;;6.63;3.00;;;8.20;79.50;;;7.55;74.28;98052.75;5055043;28;20453;-74
2024/02/06 10:28:21;;;;;;;6.37;3.40;;;8.20;79.70;;;7.47;74.38;98052.91;5060669;28;20454;-74
2024/02/06 10:30:48;;;;;;;5.13;2.93;;;8.10;79.60;;;7.73;73.75;98043.38;5062108;28;20489;-83